sensor_id;sensor_type;location;lat;lon;timestamp;temperature;humidity
16515;DHT22;8370;52.556;7.970;2023-10-31T00:00:12;12.60;99.90
16515;DHT22;8370;52.556;7.970;2023-10-31T00:02:38;12.60;99.90
16515;DHT22;8370;52.556;7.970;2023-10-31T00:05:04;12.60;99.90
16515;DHT22;8370;52.556;7.970;2023-10-31T00:07:30;12.60;99.90
16515;DHT22;8370;52.556;7.970;2023-10-31T00:09:55;12.60;99.90
16515;DHT22;8370;52.556;7.970;2023-10-31T00:12:21;12.60;99.90
16515;DHT22;8370;52.556;7.970;2023-10-31T00:14:46;12.60;99.90
16515;DHT22;8370;52.556;7.970;2023-10-31T00:17:12;12.50;99.90
16515;DHT22;8370;52.556;7.970;2023-10-31T00:19:37;12.60;99.90
16515;DHT22;8370;52.556;7.970;2023-10-31T00:22:03;12.60;99.90
16515;DHT22;8370;52.556;7.970;2023-10-31T00:24:28;12.60;99.90
16515;DHT22;8370;52.556;7.970;2023-10-31T00:26:54;12.60;99.90
16515;DHT22;8370;52.556;7.970;2023-10-31T00:29:19;12.60;99.90
16515;DHT22;8370;52.556;7.970;2023-10-31T00:31:45;12.60;99.90
16515;DHT22;8370;52.556;7.970;2023-10-31T00:34:10;12.60;99.90
16515;DHT22;8370;52.556;7.970;2023-10-31T00:36:36;12.60;99.90
16515;DHT22;8370;52.556;7.970;2023-10-31T00:39:01;12.60;99.90
16515;DHT22;8370;52.556;7.970;2023-10-31T00:41:26;12.60;99.90
16515;DHT22;8370;52.556;7.970;2023-10-31T00:43:52;12.60;99.90
16515;DHT22;8370;52.556;7.970;2023-10-31T00:46:17;12.60;99.90
16515;DHT22;8370;52.556;7.970;2023-10-31T00:48:43;12.60;99.90
16515;DHT22;8370;52.556;7.970;2023-10-31T00:51:08;12.50;99.90
16515;DHT22;8370;52.556;7.970;2023-10-31T00:53:34;12.50;99.90
16515;DHT22;8370;52.556;7.970;2023-10-31T00:55:59;12.60;99.90
16515;DHT22;8370;52.556;7.970;2023-10-31T00:58:25;12.60;99.90
16515;DHT22;8370;52.556;7.970;2023-10-31T01:00:50;12.50;99.90
16515;DHT22;8370;52.556;7.970;2023-10-31T01:03:15;12.60;99.90
16515;DHT22;8370;52.556;7.970;2023-10-31T01:05:41;12.60;99.90
16515;DHT22;8370;52.556;7.970;2023-10-31T01:08:06;12.60;99.90
16515;DHT22;8370;52.556;7.970;2023-10-31T01:10:32;12.60;99.90
16515;DHT22;8370;52.556;7.970;2023-10-31T01:12:57;12.60;99.90
16515;DHT22;8370;52.556;7.970;2023-10-31T01:15:23;12.60;99.90
16515;DHT22;8370;52.556;7.970;2023-10-31T01:17:48;12.60;99.90
16515;DHT22;8370;52.556;7.970;2023-10-31T01:20:14;12.60;99.90
16515;DHT22;8370;52.556;7.970;2023-10-31T01:22:39;12.60;99.90
16515;DHT22;8370;52.556;7.970;2023-10-31T01:25:05;12.70;99.90
16515;DHT22;8370;52.556;7.970;2023-10-31T01:27:30;12.60;99.90
16515;DHT22;8370;52.556;7.970;2023-10-31T01:29:56;12.60;99.90
16515;DHT22;8370;52.556;7.970;2023-10-31T01:32:21;12.60;99.90
16515;DHT22;8370;52.556;7.970;2023-10-31T01:34:47;12.60;99.90
16515;DHT22;8370;52.556;7.970;2023-10-31T01:37:12;12.60;99.90
16515;DHT22;8370;52.556;7.970;2023-10-31T01:39:39;12.60;99.90
16515;DHT22;8370;52.556;7.970;2023-10-31T01:42:05;12.60;99.90
16515;DHT22;8370;52.556;7.970;2023-10-31T01:44:30;12.60;99.90
16515;DHT22;8370;52.556;7.970;2023-10-31T01:46:56;12.70;99.90
16515;DHT22;8370;52.556;7.970;2023-10-31T01:49:21;12.70;99.90
16515;DHT22;8370;52.556;7.970;2023-10-31T01:51:47;12.70;99.90
16515;DHT22;8370;52.556;7.970;2023-10-31T01:54:13;12.70;99.90
16515;DHT22;8370;52.556;7.970;2023-10-31T01:56:39;12.70;99.90
16515;DHT22;8370;52.556;7.970;2023-10-31T01:59:05;12.70;99.90
16515;DHT22;8370;52.556;7.970;2023-10-31T02:01:31;12.70;99.90
16515;DHT22;8370;52.556;7.970;2023-10-31T02:03:57;12.70;99.90
16515;DHT22;8370;52.556;7.970;2023-10-31T02:06:24;12.60;99.90
16515;DHT22;8370;52.556;7.970;2023-10-31T02:08:49;12.60;99.90
16515;DHT22;8370;52.556;7.970;2023-10-31T02:11:15;12.60;99.90
16515;DHT22;8370;52.556;7.970;2023-10-31T02:13:40;12.70;99.90
16515;DHT22;8370;52.556;7.970;2023-10-31T02:16:06;12.70;99.90
16515;DHT22;8370;52.556;7.970;2023-10-31T02:18:32;12.70;99.90
16515;DHT22;8370;52.556;7.970;2023-10-31T02:20:57;12.70;99.90
16515;DHT22;8370;52.556;7.970;2023-10-31T02:23:23;12.70;99.90
16515;DHT22;8370;52.556;7.970;2023-10-31T02:25:48;12.70;99.90
16515;DHT22;8370;52.556;7.970;2023-10-31T02:28:14;12.70;99.90
16515;DHT22;8370;52.556;7.970;2023-10-31T02:30:40;12.70;99.90
16515;DHT22;8370;52.556;7.970;2023-10-31T02:33:06;12.70;99.90
16515;DHT22;8370;52.556;7.970;2023-10-31T02:35:31;12.70;99.90
16515;DHT22;8370;52.556;7.970;2023-10-31T02:37:57;12.70;99.90
16515;DHT22;8370;52.556;7.970;2023-10-31T02:40:23;12.80;99.90
16515;DHT22;8370;52.556;7.970;2023-10-31T02:42:48;12.80;99.90
16515;DHT22;8370;52.556;7.970;2023-10-31T02:45:14;12.80;99.90
16515;DHT22;8370;52.556;7.970;2023-10-31T02:47:39;12.80;99.90
16515;DHT22;8370;52.556;7.970;2023-10-31T02:50:05;12.80;99.90
16515;DHT22;8370;52.556;7.970;2023-10-31T02:52:31;12.80;99.90
16515;DHT22;8370;52.556;7.970;2023-10-31T02:54:56;12.80;99.90
16515;DHT22;8370;52.556;7.970;2023-10-31T02:57:22;12.90;99.90
16515;DHT22;8370;52.556;7.970;2023-10-31T02:59:47;12.90;99.90
16515;DHT22;8370;52.556;7.970;2023-10-31T03:02:13;12.90;99.90
16515;DHT22;8370;52.556;7.970;2023-10-31T03:04:38;12.90;99.90
16515;DHT22;8370;52.556;7.970;2023-10-31T03:07:03;12.90;99.90
16515;DHT22;8370;52.556;7.970;2023-10-31T03:09:29;12.90;99.90
16515;DHT22;8370;52.556;7.970;2023-10-31T03:11:54;12.90;99.90
16515;DHT22;8370;52.556;7.970;2023-10-31T03:14:20;12.90;99.90
16515;DHT22;8370;52.556;7.970;2023-10-31T03:16:45;12.90;99.90
16515;DHT22;8370;52.556;7.970;2023-10-31T03:19:11;13.00;99.90
16515;DHT22;8370;52.556;7.970;2023-10-31T03:21:36;13.00;99.90
16515;DHT22;8370;52.556;7.970;2023-10-31T03:24:02;13.00;99.90
16515;DHT22;8370;52.556;7.970;2023-10-31T03:26:27;12.90;99.90
16515;DHT22;8370;52.556;7.970;2023-10-31T03:28:53;12.90;99.90
16515;DHT22;8370;52.556;7.970;2023-10-31T03:31:22;12.80;99.90
16515;DHT22;8370;52.556;7.970;2023-10-31T03:33:47;12.60;99.90
16515;DHT22;8370;52.556;7.970;2023-10-31T03:36:13;12.40;99.90
16515;DHT22;8370;52.556;7.970;2023-10-31T03:38:38;12.20;99.90
16515;DHT22;8370;52.556;7.970;2023-10-31T03:41:04;12.00;99.90
16515;DHT22;8370;52.556;7.970;2023-10-31T03:43:29;11.80;99.90
16515;DHT22;8370;52.556;7.970;2023-10-31T03:45:55;11.70;99.90
16515;DHT22;8370;52.556;7.970;2023-10-31T03:48:20;11.60;99.90
16515;DHT22;8370;52.556;7.970;2023-10-31T03:50:46;11.30;99.90
16515;DHT22;8370;52.556;7.970;2023-10-31T03:53:11;11.10;99.90
16515;DHT22;8370;52.556;7.970;2023-10-31T03:55:37;11.00;99.90
16515;DHT22;8370;52.556;7.970;2023-10-31T03:58:03;10.70;99.90
16515;DHT22;8370;52.556;7.970;2023-10-31T04:00:28;10.70;99.90
16515;DHT22;8370;52.556;7.970;2023-10-31T04:02:54;10.60;99.90
16515;DHT22;8370;52.556;7.970;2023-10-31T04:05:19;10.60;99.90
16515;DHT22;8370;52.556;7.970;2023-10-31T04:07:46;10.50;99.90
16515;DHT22;8370;52.556;7.970;2023-10-31T04:10:11;10.40;99.90
16515;DHT22;8370;52.556;7.970;2023-10-31T04:12:36;10.40;99.90
16515;DHT22;8370;52.556;7.970;2023-10-31T04:15:02;10.40;99.90
16515;DHT22;8370;52.556;7.970;2023-10-31T04:17:28;10.30;99.90
16515;DHT22;8370;52.556;7.970;2023-10-31T04:19:53;10.30;99.90
16515;DHT22;8370;52.556;7.970;2023-10-31T04:22:19;10.30;99.90
16515;DHT22;8370;52.556;7.970;2023-10-31T04:24:44;10.30;99.90
16515;DHT22;8370;52.556;7.970;2023-10-31T04:27:10;10.30;99.90
16515;DHT22;8370;52.556;7.970;2023-10-31T04:29:35;10.20;99.90
16515;DHT22;8370;52.556;7.970;2023-10-31T04:32:01;10.20;99.90
16515;DHT22;8370;52.556;7.970;2023-10-31T04:34:26;10.10;99.90
16515;DHT22;8370;52.556;7.970;2023-10-31T04:36:51;10.10;99.90
16515;DHT22;8370;52.556;7.970;2023-10-31T04:39:17;10.10;99.90
16515;DHT22;8370;52.556;7.970;2023-10-31T04:41:42;10.10;99.90
16515;DHT22;8370;52.556;7.970;2023-10-31T04:44:08;10.10;99.90
16515;DHT22;8370;52.556;7.970;2023-10-31T04:46:33;10.10;99.90
16515;DHT22;8370;52.556;7.970;2023-10-31T04:48:59;10.20;99.90
16515;DHT22;8370;52.556;7.970;2023-10-31T04:51:24;10.20;99.90
16515;DHT22;8370;52.556;7.970;2023-10-31T04:53:49;10.10;99.90
16515;DHT22;8370;52.556;7.970;2023-10-31T04:56:15;10.20;99.90
16515;DHT22;8370;52.556;7.970;2023-10-31T04:58:41;10.10;99.90
16515;DHT22;8370;52.556;7.970;2023-10-31T05:01:10;10.10;99.90
16515;DHT22;8370;52.556;7.970;2023-10-31T05:03:36;10.10;99.90
16515;DHT22;8370;52.556;7.970;2023-10-31T05:06:01;10.10;99.90
16515;DHT22;8370;52.556;7.970;2023-10-31T05:08:28;10.10;99.90
16515;DHT22;8370;52.556;7.970;2023-10-31T05:10:54;10.10;99.90
16515;DHT22;8370;52.556;7.970;2023-10-31T05:13:19;10.10;99.90
16515;DHT22;8370;52.556;7.970;2023-10-31T05:15:45;10.20;99.90
16515;DHT22;8370;52.556;7.970;2023-10-31T05:18:10;10.20;99.90
16515;DHT22;8370;52.556;7.970;2023-10-31T05:20:36;10.20;99.90
16515;DHT22;8370;52.556;7.970;2023-10-31T05:23:01;10.10;99.90
16515;DHT22;8370;52.556;7.970;2023-10-31T05:25:27;10.10;99.90
16515;DHT22;8370;52.556;7.970;2023-10-31T05:27:52;10.10;99.90
16515;DHT22;8370;52.556;7.970;2023-10-31T05:30:18;10.10;99.90
16515;DHT22;8370;52.556;7.970;2023-10-31T05:32:43;10.10;99.90
16515;DHT22;8370;52.556;7.970;2023-10-31T05:35:10;10.20;99.90
16515;DHT22;8370;52.556;7.970;2023-10-31T05:37:35;10.10;99.90
16515;DHT22;8370;52.556;7.970;2023-10-31T05:40:01;10.20;99.90
16515;DHT22;8370;52.556;7.970;2023-10-31T05:42:26;10.20;99.90
16515;DHT22;8370;52.556;7.970;2023-10-31T05:44:53;10.20;99.90
16515;DHT22;8370;52.556;7.970;2023-10-31T05:47:19;10.30;99.90
16515;DHT22;8370;52.556;7.970;2023-10-31T05:49:44;10.20;99.90
16515;DHT22;8370;52.556;7.970;2023-10-31T05:52:09;10.30;99.90
16515;DHT22;8370;52.556;7.970;2023-10-31T05:54:35;10.30;99.90
16515;DHT22;8370;52.556;7.970;2023-10-31T05:57:00;10.30;99.90
16515;DHT22;8370;52.556;7.970;2023-10-31T05:59:26;10.30;99.90
16515;DHT22;8370;52.556;7.970;2023-10-31T06:01:51;10.30;99.90
16515;DHT22;8370;52.556;7.970;2023-10-31T06:04:17;10.30;99.90
16515;DHT22;8370;52.556;7.970;2023-10-31T06:06:42;10.30;99.90
16515;DHT22;8370;52.556;7.970;2023-10-31T06:09:08;10.30;99.90
16515;DHT22;8370;52.556;7.970;2023-10-31T06:11:35;10.30;99.90
16515;DHT22;8370;52.556;7.970;2023-10-31T06:14:01;10.30;99.90
16515;DHT22;8370;52.556;7.970;2023-10-31T06:16:26;10.30;99.90
16515;DHT22;8370;52.556;7.970;2023-10-31T06:18:52;10.30;99.90
16515;DHT22;8370;52.556;7.970;2023-10-31T06:21:17;10.30;99.90
16515;DHT22;8370;52.556;7.970;2023-10-31T06:23:42;10.40;99.90
16515;DHT22;8370;52.556;7.970;2023-10-31T06:26:10;10.40;99.90
16515;DHT22;8370;52.556;7.970;2023-10-31T06:28:36;10.40;99.90
16515;DHT22;8370;52.556;7.970;2023-10-31T06:31:02;10.30;99.90
16515;DHT22;8370;52.556;7.970;2023-10-31T06:33:28;10.40;99.90
16515;DHT22;8370;52.556;7.970;2023-10-31T06:35:53;10.40;99.90
16515;DHT22;8370;52.556;7.970;2023-10-31T06:38:19;10.40;99.90
16515;DHT22;8370;52.556;7.970;2023-10-31T06:40:44;10.40;99.90
16515;DHT22;8370;52.556;7.970;2023-10-31T06:43:10;10.40;99.90
16515;DHT22;8370;52.556;7.970;2023-10-31T06:45:35;10.40;99.90
16515;DHT22;8370;52.556;7.970;2023-10-31T06:48:01;10.40;99.90
16515;DHT22;8370;52.556;7.970;2023-10-31T06:50:27;10.50;99.90
16515;DHT22;8370;52.556;7.970;2023-10-31T06:52:52;10.50;99.90
16515;DHT22;8370;52.556;7.970;2023-10-31T06:55:18;10.50;99.90
16515;DHT22;8370;52.556;7.970;2023-10-31T06:57:43;10.50;99.90
16515;DHT22;8370;52.556;7.970;2023-10-31T07:00:10;10.50;99.90
16515;DHT22;8370;52.556;7.970;2023-10-31T07:02:36;10.60;99.90
16515;DHT22;8370;52.556;7.970;2023-10-31T07:05:01;10.50;99.90
16515;DHT22;8370;52.556;7.970;2023-10-31T07:07:28;10.50;99.90
16515;DHT22;8370;52.556;7.970;2023-10-31T07:09:54;10.50;99.90
16515;DHT22;8370;52.556;7.970;2023-10-31T07:12:19;10.60;99.90
16515;DHT22;8370;52.556;7.970;2023-10-31T07:14:45;10.70;99.90
16515;DHT22;8370;52.556;7.970;2023-10-31T07:17:10;10.80;99.90
16515;DHT22;8370;52.556;7.970;2023-10-31T07:19:36;10.80;99.90
16515;DHT22;8370;52.556;7.970;2023-10-31T07:22:01;10.80;99.90
16515;DHT22;8370;52.556;7.970;2023-10-31T07:24:27;10.80;99.90
16515;DHT22;8370;52.556;7.970;2023-10-31T07:26:53;10.70;99.90
16515;DHT22;8370;52.556;7.970;2023-10-31T07:29:19;10.70;99.90
16515;DHT22;8370;52.556;7.970;2023-10-31T07:31:44;10.70;99.90
16515;DHT22;8370;52.556;7.970;2023-10-31T07:34:10;10.70;99.90
16515;DHT22;8370;52.556;7.970;2023-10-31T07:36:36;10.70;99.90
16515;DHT22;8370;52.556;7.970;2023-10-31T07:39:02;10.70;99.90
16515;DHT22;8370;52.556;7.970;2023-10-31T07:41:29;10.70;99.90
16515;DHT22;8370;52.556;7.970;2023-10-31T07:43:55;10.70;99.90
16515;DHT22;8370;52.556;7.970;2023-10-31T07:46:20;10.80;99.90
16515;DHT22;8370;52.556;7.970;2023-10-31T07:48:46;10.80;99.90
16515;DHT22;8370;52.556;7.970;2023-10-31T07:51:11;10.70;99.90
16515;DHT22;8370;52.556;7.970;2023-10-31T07:53:36;10.80;99.90
16515;DHT22;8370;52.556;7.970;2023-10-31T07:56:02;10.80;99.90
16515;DHT22;8370;52.556;7.970;2023-10-31T07:58:27;10.80;99.90
16515;DHT22;8370;52.556;7.970;2023-10-31T08:00:53;10.80;99.90
16515;DHT22;8370;52.556;7.970;2023-10-31T08:03:18;10.80;99.90
16515;DHT22;8370;52.556;7.970;2023-10-31T08:05:44;10.80;99.90
16515;DHT22;8370;52.556;7.970;2023-10-31T08:08:09;10.90;99.90
16515;DHT22;8370;52.556;7.970;2023-10-31T08:10:35;10.80;99.90
16515;DHT22;8370;52.556;7.970;2023-10-31T08:13:00;10.80;99.90
16515;DHT22;8370;52.556;7.970;2023-10-31T08:15:26;10.80;99.90
16515;DHT22;8370;52.556;7.970;2023-10-31T08:17:51;10.90;99.90
16515;DHT22;8370;52.556;7.970;2023-10-31T08:20:17;10.80;99.90
16515;DHT22;8370;52.556;7.970;2023-10-31T08:22:42;10.90;99.90
16515;DHT22;8370;52.556;7.970;2023-10-31T08:25:08;10.90;99.90
16515;DHT22;8370;52.556;7.970;2023-10-31T08:27:33;10.90;99.90
16515;DHT22;8370;52.556;7.970;2023-10-31T08:29:59;10.90;99.90
16515;DHT22;8370;52.556;7.970;2023-10-31T08:32:24;10.90;99.90
16515;DHT22;8370;52.556;7.970;2023-10-31T08:34:50;11.10;99.90
16515;DHT22;8370;52.556;7.970;2023-10-31T08:37:15;11.10;99.90
16515;DHT22;8370;52.556;7.970;2023-10-31T08:39:41;11.10;99.90
16515;DHT22;8370;52.556;7.970;2023-10-31T08:42:06;11.10;99.90
16515;DHT22;8370;52.556;7.970;2023-10-31T08:44:32;11.10;99.90
16515;DHT22;8370;52.556;7.970;2023-10-31T08:46:58;11.10;99.90
16515;DHT22;8370;52.556;7.970;2023-10-31T08:49:24;11.10;99.90
16515;DHT22;8370;52.556;7.970;2023-10-31T08:51:49;11.10;99.90
16515;DHT22;8370;52.556;7.970;2023-10-31T08:54:15;11.10;99.90
16515;DHT22;8370;52.556;7.970;2023-10-31T08:56:40;11.10;99.90
16515;DHT22;8370;52.556;7.970;2023-10-31T08:59:06;11.10;99.90
16515;DHT22;8370;52.556;7.970;2023-10-31T09:01:31;11.10;99.90
16515;DHT22;8370;52.556;7.970;2023-10-31T09:03:58;11.10;99.90
16515;DHT22;8370;52.556;7.970;2023-10-31T09:06:24;11.10;99.90
16515;DHT22;8370;52.556;7.970;2023-10-31T09:08:49;11.20;99.90
16515;DHT22;8370;52.556;7.970;2023-10-31T09:11:15;11.20;99.90
16515;DHT22;8370;52.556;7.970;2023-10-31T09:13:40;11.30;99.90
16515;DHT22;8370;52.556;7.970;2023-10-31T09:16:06;11.30;99.90
16515;DHT22;8370;52.556;7.970;2023-10-31T09:18:31;11.40;99.90
16515;DHT22;8370;52.556;7.970;2023-10-31T09:20:57;11.40;99.90
16515;DHT22;8370;52.556;7.970;2023-10-31T09:23:23;11.40;99.90
16515;DHT22;8370;52.556;7.970;2023-10-31T09:25:48;11.40;99.90
16515;DHT22;8370;52.556;7.970;2023-10-31T09:28:14;11.50;99.90
16515;DHT22;8370;52.556;7.970;2023-10-31T09:30:39;11.40;99.90
16515;DHT22;8370;52.556;7.970;2023-10-31T09:33:05;11.40;99.90
16515;DHT22;8370;52.556;7.970;2023-10-31T09:35:30;11.40;99.90
16515;DHT22;8370;52.556;7.970;2023-10-31T09:37:56;11.40;99.90
16515;DHT22;8370;52.556;7.970;2023-10-31T09:40:21;11.40;99.90
16515;DHT22;8370;52.556;7.970;2023-10-31T09:42:47;11.40;99.90
16515;DHT22;8370;52.556;7.970;2023-10-31T09:45:13;11.40;99.90
16515;DHT22;8370;52.556;7.970;2023-10-31T09:47:39;11.40;99.90
16515;DHT22;8370;52.556;7.970;2023-10-31T09:50:05;11.60;99.90
16515;DHT22;8370;52.556;7.970;2023-10-31T09:52:30;11.60;99.90
16515;DHT22;8370;52.556;7.970;2023-10-31T09:54:57;11.60;99.90
16515;DHT22;8370;52.556;7.970;2023-10-31T09:57:23;11.70;99.90
16515;DHT22;8370;52.556;7.970;2023-10-31T09:59:48;11.80;99.90
16515;DHT22;8370;52.556;7.970;2023-10-31T10:02:13;11.80;99.90
16515;DHT22;8370;52.556;7.970;2023-10-31T10:04:39;11.70;99.90
16515;DHT22;8370;52.556;7.970;2023-10-31T10:07:05;11.70;99.90
16515;DHT22;8370;52.556;7.970;2023-10-31T10:09:30;11.60;99.90
16515;DHT22;8370;52.556;7.970;2023-10-31T10:12:00;11.70;99.90
16515;DHT22;8370;52.556;7.970;2023-10-31T10:14:27;11.70;99.90
16515;DHT22;8370;52.556;7.970;2023-10-31T10:16:54;11.90;99.90
16515;DHT22;8370;52.556;7.970;2023-10-31T10:19:21;11.90;99.90
16515;DHT22;8370;52.556;7.970;2023-10-31T10:21:54;11.90;99.90
16515;DHT22;8370;52.556;7.970;2023-10-31T10:24:21;11.90;99.90
16515;DHT22;8370;52.556;7.970;2023-10-31T10:26:46;11.90;99.90
16515;DHT22;8370;52.556;7.970;2023-10-31T10:29:12;11.90;99.90
16515;DHT22;8370;52.556;7.970;2023-10-31T10:31:38;11.90;99.90
16515;DHT22;8370;52.556;7.970;2023-10-31T10:34:04;11.90;99.90
16515;DHT22;8370;52.556;7.970;2023-10-31T10:36:31;11.90;99.90
16515;DHT22;8370;52.556;7.970;2023-10-31T10:38:57;11.90;99.90
16515;DHT22;8370;52.556;7.970;2023-10-31T10:41:27;12.00;99.90
16515;DHT22;8370;52.556;7.970;2023-10-31T10:43:56;12.00;99.90
16515;DHT22;8370;52.556;7.970;2023-10-31T10:46:25;12.00;99.90
16515;DHT22;8370;52.556;7.970;2023-10-31T10:48:54;12.20;99.90
16515;DHT22;8370;52.556;7.970;2023-10-31T10:53:51;12.40;99.90
16515;DHT22;8370;52.556;7.970;2023-10-31T10:56:25;12.40;99.90
16515;DHT22;8370;52.556;7.970;2023-10-31T10:58:55;12.50;99.90
16515;DHT22;8370;52.556;7.970;2023-10-31T11:01:20;12.50;99.90
16515;DHT22;8370;52.556;7.970;2023-10-31T11:03:47;12.40;99.90
16515;DHT22;8370;52.556;7.970;2023-10-31T11:06:14;12.30;99.90
16515;DHT22;8370;52.556;7.970;2023-10-31T11:08:40;12.20;99.90
16515;DHT22;8370;52.556;7.970;2023-10-31T11:11:05;12.20;99.90
16515;DHT22;8370;52.556;7.970;2023-10-31T11:13:31;12.20;99.90
16515;DHT22;8370;52.556;7.970;2023-10-31T11:15:57;12.40;99.90
16515;DHT22;8370;52.556;7.970;2023-10-31T11:18:25;12.60;99.90
16515;DHT22;8370;52.556;7.970;2023-10-31T11:20:50;13.10;99.90
16515;DHT22;8370;52.556;7.970;2023-10-31T11:23:16;14.40;99.90
16515;DHT22;8370;52.556;7.970;2023-10-31T11:25:42;15.40;99.90
16515;DHT22;8370;52.556;7.970;2023-10-31T11:28:15;15.70;99.90
16515;DHT22;8370;52.556;7.970;2023-10-31T11:30:41;15.40;99.90
16515;DHT22;8370;52.556;7.970;2023-10-31T11:33:11;14.90;99.90
16515;DHT22;8370;52.556;7.970;2023-10-31T11:35:38;14.40;99.90
16515;DHT22;8370;52.556;7.970;2023-10-31T11:38:05;14.10;99.90
16515;DHT22;8370;52.556;7.970;2023-10-31T11:40:34;13.70;99.90
16515;DHT22;8370;52.556;7.970;2023-10-31T11:43:03;13.50;99.90
16515;DHT22;8370;52.556;7.970;2023-10-31T11:45:30;13.50;99.90
16515;DHT22;8370;52.556;7.970;2023-10-31T11:47:56;13.40;99.90
16515;DHT22;8370;52.556;7.970;2023-10-31T11:50:22;13.40;99.90
16515;DHT22;8370;52.556;7.970;2023-10-31T11:55:25;13.50;99.90
16515;DHT22;8370;52.556;7.970;2023-10-31T11:57:51;13.50;99.90
16515;DHT22;8370;52.556;7.970;2023-10-31T12:00:20;13.30;99.90
16515;DHT22;8370;52.556;7.970;2023-10-31T12:03:01;13.10;99.90
16515;DHT22;8370;52.556;7.970;2023-10-31T12:05:27;13.10;99.90
16515;DHT22;8370;52.556;7.970;2023-10-31T12:07:53;13.00;99.90
16515;DHT22;8370;52.556;7.970;2023-10-31T12:10:25;13.00;99.90
16515;DHT22;8370;52.556;7.970;2023-10-31T12:12:52;13.00;99.90
16515;DHT22;8370;52.556;7.970;2023-10-31T12:15:18;12.90;99.90
16515;DHT22;8370;52.556;7.970;2023-10-31T12:17:44;12.80;99.90
16515;DHT22;8370;52.556;7.970;2023-10-31T12:20:09;12.70;99.90
16515;DHT22;8370;52.556;7.970;2023-10-31T12:22:36;12.50;99.90
16515;DHT22;8370;52.556;7.970;2023-10-31T12:25:05;12.40;99.90
16515;DHT22;8370;52.556;7.970;2023-10-31T12:27:46;12.30;99.90
16515;DHT22;8370;52.556;7.970;2023-10-31T12:30:13;12.20;99.90
16515;DHT22;8370;52.556;7.970;2023-10-31T12:32:39;12.10;99.90
16515;DHT22;8370;52.556;7.970;2023-10-31T12:35:05;12.10;99.90
16515;DHT22;8370;52.556;7.970;2023-10-31T12:37:31;12.10;99.90
16515;DHT22;8370;52.556;7.970;2023-10-31T12:39:57;12.00;99.90
16515;DHT22;8370;52.556;7.970;2023-10-31T12:42:23;12.00;99.90
16515;DHT22;8370;52.556;7.970;2023-10-31T12:44:54;12.00;99.90
16515;DHT22;8370;52.556;7.970;2023-10-31T12:47:23;12.00;99.90
16515;DHT22;8370;52.556;7.970;2023-10-31T12:50:04;12.00;99.90
16515;DHT22;8370;52.556;7.970;2023-10-31T12:52:44;12.10;99.90
16515;DHT22;8370;52.556;7.970;2023-10-31T12:55:13;12.00;99.90
16515;DHT22;8370;52.556;7.970;2023-10-31T12:57:39;12.00;99.90
16515;DHT22;8370;52.556;7.970;2023-10-31T13:00:06;11.90;99.90
16515;DHT22;8370;52.556;7.970;2023-10-31T13:02:35;11.90;99.90
16515;DHT22;8370;52.556;7.970;2023-10-31T13:07:35;11.90;99.90
16515;DHT22;8370;52.556;7.970;2023-10-31T13:10:01;11.90;99.90
16515;DHT22;8370;52.556;7.970;2023-10-31T13:12:27;11.90;99.90
16515;DHT22;8370;52.556;7.970;2023-10-31T13:14:55;12.00;99.90
16515;DHT22;8370;52.556;7.970;2023-10-31T13:17:20;11.80;99.90
16515;DHT22;8370;52.556;7.970;2023-10-31T13:19:45;11.70;99.90
16515;DHT22;8370;52.556;7.970;2023-10-31T13:22:11;11.80;99.90
16515;DHT22;8370;52.556;7.970;2023-10-31T13:24:36;11.70;99.90
16515;DHT22;8370;52.556;7.970;2023-10-31T13:27:02;11.70;99.90
16515;DHT22;8370;52.556;7.970;2023-10-31T13:29:29;11.60;99.90
16515;DHT22;8370;52.556;7.970;2023-10-31T13:31:54;11.60;99.90
16515;DHT22;8370;52.556;7.970;2023-10-31T13:34:20;11.50;99.90
16515;DHT22;8370;52.556;7.970;2023-10-31T13:36:46;11.50;99.90
16515;DHT22;8370;52.556;7.970;2023-10-31T13:39:11;11.50;99.90
16515;DHT22;8370;52.556;7.970;2023-10-31T13:41:37;11.50;99.90
16515;DHT22;8370;52.556;7.970;2023-10-31T13:44:02;11.60;99.90
16515;DHT22;8370;52.556;7.970;2023-10-31T13:46:28;11.50;99.90
16515;DHT22;8370;52.556;7.970;2023-10-31T13:48:54;11.60;99.90
16515;DHT22;8370;52.556;7.970;2023-10-31T13:51:20;11.60;99.90
16515;DHT22;8370;52.556;7.970;2023-10-31T13:53:45;11.60;99.90
16515;DHT22;8370;52.556;7.970;2023-10-31T13:56:11;11.70;99.90
16515;DHT22;8370;52.556;7.970;2023-10-31T13:58:36;11.90;99.90
16515;DHT22;8370;52.556;7.970;2023-10-31T14:01:02;11.90;99.90
16515;DHT22;8370;52.556;7.970;2023-10-31T14:03:27;12.00;99.90
16515;DHT22;8370;52.556;7.970;2023-10-31T14:05:53;12.10;99.90
16515;DHT22;8370;52.556;7.970;2023-10-31T14:08:18;12.10;99.90
16515;DHT22;8370;52.556;7.970;2023-10-31T14:10:44;12.10;99.90
16515;DHT22;8370;52.556;7.970;2023-10-31T14:13:11;12.10;99.90
16515;DHT22;8370;52.556;7.970;2023-10-31T14:15:36;12.20;99.90
16515;DHT22;8370;52.556;7.970;2023-10-31T14:18:02;12.20;99.90
16515;DHT22;8370;52.556;7.970;2023-10-31T14:20:28;12.30;99.90
16515;DHT22;8370;52.556;7.970;2023-10-31T14:22:53;12.30;99.90
16515;DHT22;8370;52.556;7.970;2023-10-31T14:25:19;12.40;99.90
16515;DHT22;8370;52.556;7.970;2023-10-31T14:27:44;12.40;99.90
16515;DHT22;8370;52.556;7.970;2023-10-31T14:30:10;12.40;99.90
16515;DHT22;8370;52.556;7.970;2023-10-31T14:32:36;12.40;99.90
16515;DHT22;8370;52.556;7.970;2023-10-31T14:35:02;12.30;99.90
16515;DHT22;8370;52.556;7.970;2023-10-31T14:37:27;12.20;99.90
16515;DHT22;8370;52.556;7.970;2023-10-31T14:39:53;12.10;99.90
16515;DHT22;8370;52.556;7.970;2023-10-31T14:42:18;12.00;99.90
16515;DHT22;8370;52.556;7.970;2023-10-31T14:44:44;11.90;99.90
16515;DHT22;8370;52.556;7.970;2023-10-31T14:47:09;11.80;99.90
16515;DHT22;8370;52.556;7.970;2023-10-31T14:49:35;11.70;99.90
16515;DHT22;8370;52.556;7.970;2023-10-31T14:52:00;11.60;99.90
16515;DHT22;8370;52.556;7.970;2023-10-31T14:54:26;11.60;99.90
16515;DHT22;8370;52.556;7.970;2023-10-31T14:56:52;11.50;99.90
16515;DHT22;8370;52.556;7.970;2023-10-31T14:59:17;11.50;99.90
16515;DHT22;8370;52.556;7.970;2023-10-31T15:01:42;11.50;99.90
16515;DHT22;8370;52.556;7.970;2023-10-31T15:04:08;11.40;99.90
16515;DHT22;8370;52.556;7.970;2023-10-31T15:06:33;11.40;99.90
16515;DHT22;8370;52.556;7.970;2023-10-31T15:08:59;11.40;99.90
16515;DHT22;8370;52.556;7.970;2023-10-31T15:11:24;11.40;99.90
16515;DHT22;8370;52.556;7.970;2023-10-31T15:13:51;11.40;99.90
16515;DHT22;8370;52.556;7.970;2023-10-31T15:16:17;11.40;99.90
16515;DHT22;8370;52.556;7.970;2023-10-31T15:18:42;11.30;99.90
16515;DHT22;8370;52.556;7.970;2023-10-31T15:21:08;11.30;99.90
16515;DHT22;8370;52.556;7.970;2023-10-31T15:23:33;11.30;99.90
16515;DHT22;8370;52.556;7.970;2023-10-31T15:26:00;11.30;99.90
16515;DHT22;8370;52.556;7.970;2023-10-31T15:28:26;11.30;99.90
16515;DHT22;8370;52.556;7.970;2023-10-31T15:30:51;11.30;99.90
16515;DHT22;8370;52.556;7.970;2023-10-31T15:33:17;11.30;99.90
16515;DHT22;8370;52.556;7.970;2023-10-31T15:35:42;11.30;99.90
16515;DHT22;8370;52.556;7.970;2023-10-31T15:38:08;11.30;99.90
16515;DHT22;8370;52.556;7.970;2023-10-31T15:40:34;11.30;99.90
16515;DHT22;8370;52.556;7.970;2023-10-31T15:42:59;11.30;99.90